Time;durP1;ratioP1;P1;durP2;ratioP2;P2;SDS_P1;SDS_P2;PMS_P1;PMS_P2;Temp;Humidity;BMP_temperature;BMP_pressure;BME280_temperature;BME280_humidity;BME280_pressure;Samples;Min_cycle;Max_cycle;Signal;HPM_P1;HPM_P2
2022/04/26 03:37:44;;;;;;;15.70;5.93;;;;;;;16.87;62.46;99092.38;5114251;28;20282;-61
2022/04/26 03:40:11;;;;;;;12.80;5.67;;;;;;;16.76;62.39;99082.16;5114037;28;20190;-61
2022/04/26 03:42:38;;;;;;;19.87;6.60;;;;;;;16.76;62.38;99095.13;5114025;28;20197;-61
2022/04/26 03:45:06;;;;;;;12.67;5.60;;;;;;;16.79;62.38;99087.31;5114109;28;20189;-61
2022/04/26 03:47:33;;;;;;;16.23;5.90;;;;;;;16.77;63.09;99096.88;5113944;28;20274;-61
2022/04/26 03:50:01;;;;;;;14.53;6.57;;;;;;;16.77;62.95;99102.06;5097923;28;20202;-59
2022/04/26 03:52:28;;;;;;;20.83;8.03;;;;;;;16.76;63.60;99102.91;5092862;28;20194;-58
2022/04/26 03:54:55;;;;;;;17.97;7.07;;;;;;;16.68;63.70;99101.31;5093009;28;20200;-59
2022/04/26 03:57:22;;;;;;;16.67;6.20;;;;;;;16.60;63.70;99104.03;5092614;28;20213;-59
2022/04/26 03:59:49;;;;;;;25.60;7.90;;;;;;;16.58;64.38;99094.56;5093173;28;20728;-59
2022/04/26 04:02:16;;;;;;;23.77;7.07;;;;;;;16.64;63.84;99110.91;5092765;28;20185;-59
2022/04/26 04:04:43;;;;;;;16.33;6.30;;;;;;;16.63;63.30;99111.78;5095021;28;20278;-60
2022/04/26 04:07:11;;;;;;;9.60;5.27;;;;;;;16.65;61.60;99122.09;5089791;28;20195;-59
2022/04/26 04:09:38;;;;;;;16.40;5.30;;;;;;;16.67;61.37;99128.16;5090610;28;20682;-59
2022/04/26 04:12:05;;;;;;;16.10;6.50;;;;;;;16.68;60.86;99133.31;5093054;28;20302;-59
2022/04/26 04:14:32;;;;;;;10.07;5.40;;;;;;;16.58;60.45;99120.50;5092583;28;20202;-59
2022/04/26 04:16:59;;;;;;;17.10;6.13;;;;;;;16.64;60.62;99131.66;5112270;28;20580;-61
2022/04/26 04:19:27;;;;;;;13.57;6.83;;;;;;;16.64;60.67;99130.78;5098673;28;20563;-60
2022/04/26 04:21:54;;;;;;;22.10;10.40;;;;;;;16.66;60.54;99131.63;5072678;28;20202;-60
2022/04/26 04:24:22;;;;;;;14.83;9.77;;;;;;;16.69;60.78;99137.63;5080685;28;20681;-60
2022/04/26 04:26:50;;;;;;;15.33;6.30;;;;;;;16.60;60.08;99126.50;5092076;28;20202;-60
2022/04/26 04:29:17;;;;;;;16.20;5.87;;;;;;;16.73;60.01;99126.31;5089914;28;20279;-61
2022/04/26 04:31:45;;;;;;;21.23;6.30;;;;;;;16.74;59.88;99138.41;5092088;28;20702;-60
2022/04/26 04:34:12;;;;;;;11.53;4.43;;;;;;;16.75;58.69;99144.47;5089647;28;20191;-61
2022/04/26 04:36:39;;;;;;;8.70;4.50;;;;;;;16.76;58.93;99135.78;5092356;28;20190;-60
2022/04/26 04:39:06;;;;;;;16.03;5.67;;;;;;;16.79;58.96;99146.13;5092233;28;20385;-60
2022/04/26 04:41:36;;;;;;;11.27;4.40;;;;;;;16.89;58.41;99147.72;5091814;28;20179;-56
2022/04/26 04:44:07;;;;;;;11.20;4.60;;;;;;;16.93;57.60;99150.25;5092355;28;20607;-57
2022/04/26 04:46:34;;;;;;;8.53;5.07;;;;;;;16.79;57.87;99156.50;5089667;28;20673;-57
2022/04/26 04:49:01;;;;;;;9.90;5.10;;;;;;;16.91;57.53;99151.16;5091714;28;20197;-57
2022/04/26 04:51:28;;;;;;;13.97;5.20;;;;;;;17.09;57.23;99151.72;5091896;28;20202;-57
2022/04/26 04:53:55;;;;;;;15.03;4.57;;;;;;;17.20;56.48;99146.34;5091863;28;20588;-56
2022/04/26 04:56:24;;;;;;;7.60;4.30;;;;;;;17.15;55.95;99145.56;5091366;28;20183;-57
2022/04/26 04:58:53;;;;;;;12.73;5.67;;;;;;;17.25;55.90;99149.72;5089120;28;20206;-57
2022/04/26 05:01:20;;;;;;;9.23;4.50;;;;;;;17.37;54.42;99159.06;5091583;28;20214;-56
2022/04/26 05:03:47;;;;;;;8.30;4.00;;;;;;;17.46;54.56;99161.53;5091938;28;20183;-57
2022/04/26 05:06:15;;;;;;;8.13;4.50;;;;;;;17.65;53.78;99173.34;5090334;28;20194;-56
2022/04/26 05:08:42;;;;;;;13.63;4.43;;;;;;;17.73;53.66;99171.47;5075218;28;20200;-56
2022/04/26 05:11:09;;;;;;;8.80;4.70;;;;;;;17.76;53.66;99175.75;5071521;28;20191;-56
2022/04/26 05:13:36;;;;;;;10.20;4.90;;;;;;;17.82;53.31;99175.66;5071744;28;20594;-56
2022/04/26 05:16:05;;;;;;;18.40;4.87;;;;;;;17.96;53.50;99182.31;5071261;28;20225;-56
2022/04/26 05:18:32;;;;;;;11.07;4.60;;;;;;;18.07;52.62;99182.13;5071212;28;20783;-57
2022/04/26 05:20:59;;;;;;;10.13;5.00;;;;;;;18.21;52.09;99187.91;5071182;28;20199;-56
2022/04/26 05:26:10;;;;;;;11.37;4.30;;;;;;;18.39;51.24;99192.75;5096387;28;20204;-56
2022/04/26 05:28:37;;;;;;;9.53;4.60;;;;;;;18.48;50.76;99187.41;5111491;28;20724;-56
2022/04/26 05:31:06;;;;;;;10.33;5.03;;;;;;;18.63;50.82;99186.19;5111641;28;20193;-56
2022/04/26 05:33:33;;;;;;;9.73;5.27;;;;;;;18.81;50.34;99191.91;5111626;28;20205;-57
2022/04/26 05:36:00;;;;;;;8.50;4.40;;;;;;;19.00;49.86;99189.72;5111516;28;20194;-57
2022/04/26 05:38:27;;;;;;;9.80;4.40;;;;;;;19.15;48.34;99194.56;5103942;28;20213;-58
2022/04/26 05:40:54;;;;;;;10.90;4.37;;;;;;;19.33;47.84;99188.97;5091025;28;20573;-57
2022/04/26 05:43:22;;;;;;;13.83;4.60;;;;;;;19.50;47.33;99191.19;5091125;28;20194;-57
2022/04/26 05:45:49;;;;;;;6.57;3.53;;;;;;;19.62;46.35;99196.06;5091392;28;20194;-56
2022/04/26 05:48:17;;;;;;;11.10;4.10;;;;;;;19.70;45.85;99198.47;5091248;28;20187;-56
2022/04/26 05:50:44;;;;;;;11.27;4.60;;;;;;;19.67;46.38;99190.75;5089816;28;20201;-57
2022/04/26 05:53:11;;;;;;;9.30;3.53;;;;;;;19.53;45.41;99158.97;5090800;28;20194;-57
2022/04/26 05:55:39;;;;;;;10.43;4.43;;;;;;;19.76;45.69;99195.72;5090354;28;20507;-57
2022/04/26 05:58:06;;;;;;;13.07;4.97;;;;;;;19.87;45.64;99191.09;5090640;28;20275;-57
2022/04/26 06:00:33;;;;;;;12.87;4.13;;;;;;;19.91;45.21;99195.34;5090704;28;20227;-57
2022/04/26 06:03:00;;;;;;;9.03;4.33;;;;;;;19.94;45.22;99190.06;5090360;28;20186;-57
2022/04/26 06:05:29;;;;;;;8.13;3.83;;;;;;;19.83;45.25;99163.41;5090109;28;20195;-56
2022/04/26 06:07:57;;;;;;;10.50;3.80;;;;;;;19.98;45.17;99189.06;5090368;28;20216;-57
2022/04/26 06:10:24;;;;;;;10.13;3.93;;;;;;;19.97;45.16;99189.94;5092071;28;20278;-57
2022/04/26 06:12:52;;;;;;;9.93;4.23;;;;;;;20.06;45.15;99186.25;5086551;28;20282;-57
2022/04/26 06:15:21;;;;;;;9.23;4.63;;;;;;;20.07;44.86;99187.97;5089280;28;20234;-56
2022/04/26 06:17:48;;;;;;;10.83;3.70;;;;;;;20.15;44.68;99189.47;5090393;28;20290;-57
2022/04/26 06:20:16;;;;;;;8.93;3.93;;;;;;;20.21;44.57;99188.44;5090552;28;20279;-57
2022/04/26 06:22:44;;;;;;;10.93;3.60;;;;;;;20.28;45.37;99196.09;5090453;28;20202;-56
2022/04/26 06:25:11;;;;;;;16.87;4.47;;;;;;;20.36;44.91;99186.28;5090535;28;20195;-57
2022/04/26 06:27:38;;;;;;;11.73;4.27;;;;;;;20.45;45.49;99188.66;5090021;28;20190;-57
2022/04/26 06:30:06;;;;;;;9.67;3.90;;;;;;;20.42;46.25;99186.13;5089019;28;20246;-61
2022/04/26 06:32:33;;;;;;;11.60;3.87;;;;;;;20.35;46.06;99184.59;5089657;28;20647;-60
2022/04/26 06:35:00;;;;;;;13.37;3.70;;;;;;;20.09;46.17;99165.28;5089995;28;20186;-61
2022/04/26 06:37:27;;;;;;;14.17;4.27;;;;;;;20.22;46.08;99175.34;5087004;28;20646;-61
2022/04/26 06:39:55;;;;;;;6.77;3.80;;;;;;;20.38;45.46;99181.06;5089758;28;20218;-61
2022/04/26 06:42:23;;;;;;;7.63;3.77;;;;;;;20.40;45.20;99177.50;5089862;28;20286;-60
2022/04/26 06:44:50;;;;;;;16.70;4.22;;;;;;;20.49;45.83;99179.81;5086248;28;20442;-61
2022/04/26 06:47:16;;;;;;;12.30;4.77;;;;;;;20.66;45.69;99181.09;5089215;28;20182;-61
2022/04/26 06:49:43;;;;;;;6.93;3.50;;;;;;;20.81;44.01;99167.59;5087847;28;20666;-61
2022/04/26 06:52:10;;;;;;;8.70;3.27;;;;;;;20.88;42.90;99166.47;5088563;28;20611;-61
2022/04/26 06:54:37;;;;;;;7.10;2.93;;;;;;;21.02;42.60;99174.75;5084909;28;20190;-60
2022/04/26 06:57:06;;;;;;;4.57;2.63;;;;;;;21.14;41.67;99171.81;5088629;28;20183;-60
2022/04/26 06:59:33;;;;;;;7.40;3.03;;;;;;;21.14;41.66;99175.28;5088096;28;20236;-60
2022/04/26 07:01:59;;;;;;;7.47;3.03;;;;;;;21.28;42.12;99166.13;5089313;28;20506;-60
2022/04/26 07:04:27;;;;;;;7.47;3.43;;;;;;;21.33;41.90;99166.84;5093113;28;20179;-61
2022/04/26 07:06:54;;;;;;;11.80;3.17;;;;;;;21.35;41.95;99171.09;5093669;28;20319;-61
2022/04/26 07:09:20;;;;;;;12.10;3.73;;;;;;;21.46;41.59;99175.97;5093557;28;20658;-60
2022/04/26 07:11:47;;;;;;;14.53;3.50;;;;;;;21.51;41.56;99174.06;5093531;28;20650;-60
2022/04/26 07:14:16;;;;;;;8.37;3.17;;;;;;;21.58;41.85;99173.84;5093814;28;20215;-61
2022/04/26 07:16:45;;;;;;;8.03;2.93;;;;;;;21.48;41.68;99169.78;5093162;28;20218;-61
2022/04/26 07:19:12;;;;;;;12.37;3.07;;;;;;;21.45;41.99;99175.13;5093617;28;20268;-61
2022/04/26 07:21:39;;;;;;;11.43;3.10;;;;;;;21.55;41.88;99176.53;5089529;28;20314;-60
2022/04/26 07:24:06;;;;;;;8.60;3.50;;;;;;;21.56;41.44;99174.78;5093488;28;20191;-61
2022/04/26 07:26:33;;;;;;;8.47;3.80;;;;;;;21.47;42.31;99175.94;5093784;28;20198;-61
2022/04/26 07:29:00;;;;;;;7.97;3.67;;;;;;;21.61;41.51;99175.50;5093560;28;20191;-61
2022/04/26 07:31:30;;;;;;;10.27;3.60;;;;;;;21.69;41.63;99182.19;5091519;28;20676;-61
2022/04/26 07:36:41;;;;;;;8.57;3.13;;;;;;;21.95;41.18;99180.47;5091397;28;20289;-61
2022/04/26 07:39:08;;;;;;;10.43;3.27;;;;;;;21.84;41.81;99174.72;5093028;28;20211;-61
2022/04/26 07:41:35;;;;;;;10.13;3.73;;;;;;;21.87;41.67;99172.00;5093183;28;20878;-61
2022/04/26 07:44:02;;;;;;;13.47;3.67;;;;;;;21.77;41.47;99174.91;5093153;28;20201;-61
2022/04/26 07:46:30;;;;;;;10.33;3.60;;;;;;;21.69;41.68;99163.00;5092902;28;20533;-61
2022/04/26 07:48:57;;;;;;;13.83;3.47;;;;;;;21.67;41.93;99175.28;5093585;28;20225;-60
2022/04/26 07:51:25;;;;;;;8.73;4.10;;;;;;;21.76;42.58;99173.19;5093386;28;20191;-61
2022/04/26 07:53:51;;;;;;;12.67;4.27;;;;;;;21.93;42.69;99172.66;5093096;28;20202;-61
2022/04/26 07:56:18;;;;;;;9.97;4.03;;;;;;;22.20;42.17;99171.69;5092911;28;20197;-61
2022/04/26 07:58:45;;;;;;;11.30;4.67;;;;;;;22.34;42.27;99171.19;5093165;28;20272;-60
2022/04/26 08:01:12;;;;;;;12.37;4.40;;;;;;;22.49;42.44;99175.88;5093297;28;20199;-61
2022/04/26 08:03:40;;;;;;;15.20;4.30;;;;;;;22.13;41.78;99172.81;5088477;28;20224;-61
2022/04/26 08:06:07;;;;;;;10.47;3.90;;;;;;;22.12;42.05;99170.25;5072630;28;20282;-60
2022/04/26 08:08:34;;;;;;;8.97;3.93;;;;;;;22.00;42.38;99163.66;5072602;28;20191;-61
2022/04/26 08:11:03;;;;;;;10.77;4.47;;;;;;;22.13;43.27;99170.19;5072282;28;20290;-60
2022/04/26 08:13:30;;;;;;;15.73;4.38;;;;;;;22.07;43.69;99170.41;5089385;28;20886;-62
2022/04/26 08:15:57;;;;;;;16.13;4.80;;;;;;;22.32;44.43;99167.78;5094989;28;20337;-60
2022/04/26 08:18:24;;;;;;;15.37;4.30;;;;;;;22.45;45.01;99168.16;5096408;28;20202;-60
2022/04/26 08:20:52;;;;;;;19.27;5.27;;;;;;;22.56;45.58;99169.47;5105616;28;20281;-61
2022/04/26 08:23:19;;;;;;;13.37;5.17;;;;;;;22.60;44.94;99163.22;5091547;28;20926;-61
2022/04/26 08:28:31;;;;;;;11.77;6.00;;;;;;;22.52;46.04;99161.81;5090718;28;20189;-59
2022/04/26 08:30:58;;;;;;;12.27;6.17;;;;;;;22.60;46.77;99152.75;5086138;28;20196;-60
2022/04/26 08:33:25;;;;;;;14.23;5.77;;;;;;;22.78;46.09;99165.16;5091029;28;20199;-59
2022/04/26 08:35:54;;;;;;;14.47;6.37;;;;;;;22.92;45.80;99148.91;5082660;28;20711;-61
2022/04/26 08:38:21;;;;;;;16.97;6.57;;;;;;;22.80;45.55;99157.25;5087343;28;20662;-60
2022/04/26 08:40:48;;;;;;;12.83;5.90;;;;;;;22.45;46.93;99150.69;5084005;28;20688;-60
2022/04/26 08:43:16;;;;;;;15.13;6.13;;;;;;;22.73;46.42;99147.91;5090610;28;20244;-61
2022/04/26 08:45:46;;;;;;;10.53;4.23;;;;;;;22.85;46.16;99153.53;5076920;28;20200;-60
2022/04/26 08:51:05;;;;;;;12.93;4.27;;;;;;;22.90;44.08;99150.75;5088105;28;21712;-62
2022/04/26 08:53:34;;;;;;;7.88;3.90;;;;;;;22.72;42.63;99154.91;5090376;28;20435;-61
2022/04/26 08:56:03;;;;;;;7.90;3.13;;;;;;;22.79;43.13;99152.94;5089471;28;20565;-60
2022/04/26 08:58:32;;;;;;;9.17;4.33;;;;;;;22.98;42.53;99150.44;5091113;28;20687;-60
2022/04/26 09:01:11;;;;;;;6.13;2.63;;;;;;;23.11;42.17;99155.13;5091501;28;20569;-60
2022/04/26 09:03:39;;;;;;;5.03;2.33;;;;;;;22.95;39.47;99142.69;5091352;28;20201;-60
2022/04/26 09:06:10;;;;;;;6.40;3.03;;;;;;;22.91;39.85;99147.19;5091487;28;20223;-60
2022/04/26 09:08:38;;;;;;;4.57;3.00;;;;;;;22.98;40.17;99134.72;5091476;28;20293;-60
2022/04/26 09:11:19;;;;;;;11.27;2.93;;;;;;;23.04;38.86;99134.47;5105103;28;20198;-60
2022/04/26 09:13:46;;;;;;;4.23;2.37;;;;;;;23.06;38.73;99123.03;5103613;28;20210;-61
2022/04/26 09:16:18;;;;;;;6.53;3.00;;;;;;;23.18;39.27;99124.31;5090524;28;20571;-60
2022/04/26 09:18:53;;;;;;;3.37;2.00;;;;;;;23.31;37.18;99115.88;5090912;28;20282;-60
2022/04/26 09:21:22;;;;;;;7.73;2.70;;;;;;;23.54;38.01;99119.34;5091060;28;20942;-61
2022/04/26 09:23:49;;;;;;;8.43;3.17;;;;;;;23.75;38.17;99116.66;5090660;28;20191;-60
2022/04/26 09:26:18;;;;;;;8.90;3.90;;;;;;;24.02;37.07;99115.44;5090333;28;20339;-61
2022/04/26 09:28:47;;;;;;;7.33;3.07;;;;;;;24.24;37.18;99106.63;5090638;28;20198;-60
2022/04/26 09:31:18;;;;;;;5.87;2.30;;;;;;;24.29;36.21;99108.13;5090847;28;20191;-60
2022/04/26 09:33:49;;;;;;;6.87;2.30;;;;;;;24.37;35.22;99113.88;5090655;28;20256;-61
2022/04/26 09:36:17;;;;;;;5.60;2.47;;;;;;;24.36;34.81;99106.09;5090390;28;20645;-60
2022/04/26 09:38:52;;;;;;;9.27;2.47;;;;;;;24.27;34.06;99106.50;5090165;28;20197;-60
2022/04/26 09:41:20;;;;;;;3.60;2.50;;;;;;;24.32;34.26;99107.13;5090593;28;20178;-62
2022/04/26 09:43:57;;;;;;;7.97;2.63;;;;;;;24.37;33.51;99111.25;5090531;28;20278;-62
2022/04/26 09:46:24;;;;;;;4.97;2.30;;;;;;;24.30;33.25;99099.34;5090627;28;20198;-61
2022/04/26 09:48:54;;;;;;;5.47;2.27;;;;;;;24.44;34.27;99101.31;5090564;28;20191;-61
2022/04/26 09:51:21;;;;;;;6.67;2.60;;;;;;;24.50;33.71;99107.13;5090866;28;20203;-57
2022/04/26 09:53:50;;;;;;;5.70;2.10;;;;;;;24.64;34.08;99103.84;5090831;28;20191;-57
2022/04/26 09:56:20;;;;;;;5.97;2.00;;;;;;;24.77;34.27;99099.75;5086813;28;20187;-57
2022/04/26 09:58:47;;;;;;;5.90;2.27;;;;;;;24.84;34.51;99090.66;5090572;28;20198;-57
2022/04/26 10:01:14;;;;;;;7.30;3.00;;;;;;;24.99;35.22;99096.97;5090820;28;20187;-57
2022/04/26 10:03:44;;;;;;;6.07;3.47;;;;;;;25.11;33.83;99094.59;5089958;28;20432;-60
2022/04/26 10:06:16;;;;;;;7.93;2.43;;;;;;;25.28;34.02;99091.13;5090404;28;20267;-60
2022/04/26 10:08:43;;;;;;;4.97;1.90;;;;;;;25.22;34.20;99094.06;5090056;28;20282;-60
2022/04/26 10:11:11;;;;;;;2.37;1.93;;;;;;;25.26;34.40;99087.72;5090022;28;20274;-60
2022/04/26 10:13:43;;;;;;;5.07;2.33;;;;;;;25.21;32.72;99085.34;5090199;28;20190;-61
2022/04/26 10:16:12;;;;;;;8.47;2.90;;;;;;;25.14;33.67;99077.81;5089991;28;20235;-57
2022/04/26 10:18:43;;;;;;;7.93;2.83;;;;;;;25.22;32.84;99079.13;5089949;28;20186;-57
2022/04/26 10:21:12;;;;;;;2.83;2.40;;;;;;;25.18;33.12;99076.75;5089927;28;20686;-57
2022/04/26 10:24:18;;;;;;;5.27;2.20;;;;;;;25.20;33.16;99075.72;5086385;28;20263;-58
2022/04/26 10:26:48;;;;;;;5.82;2.50;;;;;;;25.43;32.66;99077.22;5084353;28;20514;-57
2022/04/26 10:29:18;;;;;;;11.50;2.60;;;;;;;25.47;32.59;99067.41;5088555;28;20252;-57
2022/04/26 10:31:47;;;;;;;2.87;1.90;;;;;;;25.50;32.28;99067.25;5082599;28;20733;-57
2022/04/26 10:34:33;;;;;;;5.13;2.63;;;;;;;25.56;32.03;99070.44;5087120;28;20235;-58
2022/04/26 10:37:20;;;;;;;7.27;2.10;;;;;;;25.64;32.27;99076.13;5084375;28;20194;-57
2022/04/26 10:39:58;;;;;;;13.73;3.00;;;;;;;25.62;31.92;99083.28;5089088;28;20210;-58
2022/04/26 10:42:28;;;;;;;6.13;2.17;;;;;;;25.65;31.99;99087.53;5086592;28;20244;-58
2022/04/26 10:45:00;;;;;;;5.45;2.13;;;;;;;25.79;32.18;99088.50;5089176;28;20470;-58
2022/04/26 10:47:30;;;;;;;6.83;2.33;;;;;;;25.84;31.38;99109.34;5089329;28;20214;-58
2022/04/26 10:50:02;;;;;;;3.17;2.17;;;;;;;25.84;30.84;99105.84;5089047;28;21317;-57
2022/04/26 10:52:35;;;;;;;7.70;2.50;;;;;;;25.81;31.28;99093.69;5087554;28;20219;-57
2022/04/26 10:55:05;;;;;;;8.27;2.53;;;;;;;25.94;30.96;99094.75;5089454;28;20654;-58
2022/04/26 10:57:34;;;;;;;11.77;2.33;;;;;;;26.07;30.89;99094.97;5086630;28;20206;-58
2022/04/26 11:00:04;;;;;;;7.77;2.40;;;;;;;26.14;30.98;99081.41;5086941;28;20215;-62
2022/04/26 11:02:33;;;;;;;7.70;2.50;;;;;;;26.46;31.57;99073.53;5089753;28;20190;-59
2022/04/26 11:05:03;;;;;;;3.90;2.50;;;;;;;26.58;31.22;99072.88;5090574;28;20191;-63
2022/04/26 11:07:30;;;;;;;6.22;2.53;;;;;;;26.49;31.60;99068.97;5092795;28;20439;-62
2022/04/26 11:09:58;;;;;;;5.77;2.23;;;;;;;26.44;31.80;99075.41;5087184;28;20191;-62
2022/04/26 11:12:27;;;;;;;5.40;2.20;;;;;;;26.48;31.54;99063.78;5077961;28;20195;-61
2022/04/26 11:14:57;;;;;;;6.93;2.30;;;;;;;26.51;32.31;99050.44;5088791;28;20774;-61
2022/04/26 11:17:25;;;;;;;4.47;2.77;;;;;;;26.37;31.78;99059.09;5089386;28;20198;-61
2022/04/26 11:19:54;;;;;;;6.90;2.20;;;;;;;26.12;32.01;99064.78;5080728;28;20229;-61
2022/04/26 11:22:22;;;;;;;4.43;1.97;;;;;;;25.92;31.57;99035.22;5082969;28;20251;-61
2022/04/26 11:30:29;;;;;;;7.10;2.33;;;;;;;26.37;31.24;99075.75;5109647;28;20178;-60
2022/04/26 11:32:57;;;;;;;9.10;2.80;;;;;;;26.37;31.12;99070.47;5109574;28;20297;-61
2022/04/26 11:35:24;;;;;;;4.30;1.90;;;;;;;26.43;31.63;99060.53;5109512;28;20201;-62
2022/04/26 11:37:53;;;;;;;3.53;1.73;;;;;;;26.27;31.79;99058.75;5084148;28;20593;-61
2022/04/26 11:40:25;;;;;;;9.10;2.33;;;;;;;26.20;32.45;99057.41;5086565;28;20206;-62
2022/04/26 11:42:52;;;;;;;7.60;2.73;;;;;;;26.47;33.65;99048.91;5084194;28;20663;-62
2022/04/26 11:45:21;;;;;;;7.83;2.50;;;;;;;26.37;34.35;99043.28;5078504;28;20191;-60
2022/04/26 11:47:51;;;;;;;6.23;2.80;;;;;;;26.26;33.84;99046.50;5093388;28;20200;-60
2022/04/26 11:50:23;;;;;;;5.50;2.40;;;;;;;26.17;33.64;99054.06;5091728;28;20244;-60
2022/04/26 11:52:52;;;;;;;5.30;2.07;;;;;;;25.85;33.45;99042.56;5092213;28;20195;-61
2022/04/26 11:55:28;;;;;;;6.87;2.30;;;;;;;25.96;34.14;99048.13;5091996;28;20197;-61
2022/04/26 11:58:06;;;;;;;9.90;3.97;;;;;;;25.69;34.97;99044.31;5092313;28;20197;-63
2022/04/26 12:00:34;;;;;;;7.60;2.70;;;;;;;25.78;34.84;99049.09;5091503;28;20223;-57
2022/04/26 12:03:03;;;;;;;9.73;5.80;;;;;;;26.03;34.79;99046.88;5083676;28;20708;-56
2022/04/26 12:05:37;;;;;;;7.03;3.27;;;;;;;26.36;33.89;99052.97;5089448;28;20202;-57
2022/04/26 12:08:09;;;;;;;3.13;2.70;;;;;;;26.29;33.34;99038.44;5082202;28;20575;-57
2022/04/26 12:10:36;;;;;;;5.80;2.30;;;;;;;26.25;32.71;99030.78;5089949;28;20902;-57
2022/04/26 12:13:05;;;;;;;4.70;2.63;;;;;;;26.24;33.07;99029.94;5090960;28;20278;-57
2022/04/26 12:15:35;;;;;;;6.97;3.03;;;;;;;26.43;34.14;99031.53;5089603;28;20218;-57
2022/04/26 12:18:13;;;;;;;10.90;3.63;;;;;;;26.36;34.38;99026.63;5090990;28;20283;-57
2022/04/26 12:20:59;;;;;;;7.73;3.10;;;;;;;26.23;33.88;99017.69;5089414;28;20704;-57
2022/04/26 12:23:26;;;;;;;8.97;3.57;;;;;;;26.47;33.38;99017.28;5088857;28;20199;-63
2022/04/26 12:25:55;;;;;;;9.27;3.40;;;;;;;26.69;33.46;99017.78;5091874;28;20202;-60
2022/04/26 12:28:22;;;;;;;9.83;3.27;;;;;;;26.66;32.39;99012.66;5091735;28;20194;-60
2022/04/26 12:30:49;;;;;;;8.73;3.10;;;;;;;26.93;32.22;99005.84;5091517;28;20205;-60
2022/04/26 12:33:27;;;;;;;9.35;4.53;;;;;;;27.11;32.54;99017.13;5091747;28;20209;-61
2022/04/26 12:36:02;;;;;;;5.35;2.63;;;;;;;26.82;32.25;99003.84;5090050;28;20186;-61
2022/04/26 12:38:30;;;;;;;13.17;3.00;;;;;;;26.81;32.70;99006.56;5085161;28;20202;-61
2022/04/26 12:41:05;;;;;;;7.20;2.88;;;;;;;26.92;31.95;98998.88;5090988;28;20219;-60
2022/04/26 12:43:33;;;;;;;5.60;2.47;;;;;;;26.93;32.17;98985.59;5091321;28;20186;-56
2022/04/26 12:46:02;;;;;;;8.83;2.70;;;;;;;27.01;33.12;98987.78;5091195;28;20199;-57
2022/04/26 12:51:20;;;;;;;11.70;2.93;;;;;;;26.85;33.69;98976.44;5086749;28;20189;-57
2022/04/26 12:53:48;;;;;;;8.20;3.00;;;;;;;26.83;33.83;98973.06;5090532;28;20912;-57
2022/04/26 12:56:16;;;;;;;7.30;2.87;;;;;;;26.93;31.27;98974.19;5090597;28;20665;-57
2022/04/26 12:58:45;;;;;;;5.63;2.87;;;;;;;26.76;30.92;98975.16;5091215;28;20190;-57
2022/04/26 13:01:12;;;;;;;9.70;3.00;;;;;;;26.78;31.43;98964.56;5092343;28;20639;-57
2022/04/26 13:03:42;;;;;;;10.50;3.57;;;;;;;26.92;32.13;98972.50;5091433;28;20187;-57
2022/04/26 13:06:11;;;;;;;6.18;2.63;;;;;;;26.64;32.52;98967.09;5081509;28;20196;-57
2022/04/26 13:08:39;;;;;;;10.23;2.87;;;;;;;26.81;32.42;98964.41;5071056;28;20195;-57
2022/04/26 13:11:06;;;;;;;10.75;3.28;;;;;;;26.90;32.49;98964.69;5088889;28;20199;-57
2022/04/26 13:13:35;;;;;;;6.97;3.88;;;;;;;26.73;32.06;98908.56;5091237;28;20195;-57
2022/04/26 13:16:02;;;;;;;7.77;4.40;;;;;;;26.97;31.32;98957.28;5071985;28;20227;-57
2022/04/26 13:18:29;;;;;;;8.32;3.45;;;;;;;26.99;30.59;98960.66;5070328;28;20438;-57
2022/04/26 13:20:58;;;;;;;7.95;3.47;;;;;;;26.98;31.92;98958.94;5070946;28;20668;-57
2022/04/26 13:23:26;;;;;;;6.22;3.15;;;;;;;26.97;32.08;98964.34;5070689;28;20200;-57
2022/04/26 13:25:53;;;;;;;6.30;2.83;;;;;;;26.76;32.65;98954.06;5086417;28;20199;-57
2022/04/26 13:28:20;;;;;;;13.50;3.97;;;;;;;27.00;32.46;98961.53;5090626;28;20581;-57
2022/04/26 13:30:47;;;;;;;6.13;2.57;;;;;;;27.12;31.20;98953.72;5107926;28;20190;-57
2022/04/26 13:33:14;;;;;;;3.57;2.40;;;;;;;27.13;31.11;98959.84;5111387;28;20225;-57
2022/04/26 13:35:41;;;;;;;13.20;2.90;;;;;;;27.23;31.36;98956.56;5111316;28;20194;-57
2022/04/26 13:38:11;;;;;;;7.67;3.33;;;;;;;27.09;31.50;98958.31;5093401;28;20190;-57
2022/04/26 13:40:38;;;;;;;4.45;2.65;;;;;;;27.14;31.47;98961.56;5090793;28;20803;-57
2022/04/26 13:43:06;;;;;;;4.20;2.40;;;;;;;26.97;31.05;98959.91;5091192;28;20187;-57
2022/04/26 13:45:34;;;;;;;9.13;2.97;;;;;;;27.09;30.85;98964.44;5091212;28;20191;-57
2022/04/26 13:48:02;;;;;;;9.18;3.42;;;;;;;27.36;30.49;98959.31;5090927;28;20194;-57
2022/04/26 13:50:29;;;;;;;6.78;3.33;;;;;;;27.55;29.27;98954.66;5091244;28;21001;-57
2022/04/26 13:52:57;;;;;;;4.72;3.20;;;;;;;27.58;29.38;98950.97;5091102;28;20194;-57
2022/04/26 13:55:26;;;;;;;7.30;3.28;;;;;;;27.30;29.97;98957.91;5086478;28;20241;-57
2022/04/26 13:57:54;;;;;;;13.65;3.20;;;;;;;27.14;30.11;98962.38;5090044;28;20195;-58
2022/04/26 14:00:22;;;;;;;7.20;3.03;;;;;;;27.04;30.34;98963.88;5089739;28;20191;-57
2022/04/26 14:02:49;;;;;;;7.45;2.85;;;;;;;27.01;30.37;98969.31;5087094;28;20191;-57
2022/04/26 14:05:17;;;;;;;5.93;2.95;;;;;;;27.21;30.35;98970.78;5089439;28;20199;-57
2022/04/26 14:07:46;;;;;;;6.20;3.00;;;;;;;27.20;30.46;98969.94;5089480;28;20719;-58
2022/04/26 14:10:13;;;;;;;7.72;3.60;;;;;;;27.68;30.10;98968.78;5090250;28;20278;-57
2022/04/26 14:12:42;;;;;;;5.03;3.00;;;;;;;27.65;29.87;98970.75;5089705;28;20194;-57
2022/04/26 14:23:27;;;;;;;5.88;3.10;;;;;;;26.56;31.38;98964.91;5088780;28;20487;-57
2022/04/26 14:25:54;;;;;;;6.80;3.25;;;;;;;26.55;32.04;98960.56;5088193;28;20428;-57
2022/04/26 14:28:22;;;;;;;8.57;3.63;;;;;;;26.49;32.94;98963.56;5083704;28;20202;-57
2022/04/26 14:30:49;;;;;;;7.80;3.33;;;;;;;26.45;32.90;98954.13;5069973;28;20196;-57
2022/04/26 14:33:17;;;;;;;8.93;3.50;;;;;;;26.39;32.87;98967.66;5077547;28;20222;-57
2022/04/26 14:35:44;;;;;;;8.07;3.30;;;;;;;26.35;33.38;98968.75;5090062;28;20194;-57
2022/04/26 14:38:11;;;;;;;9.70;3.50;;;;;;;26.29;33.88;98969.09;5090135;28;20273;-57
2022/04/26 14:40:38;;;;;;;6.15;3.10;;;;;;;26.30;34.09;98983.97;5089906;28;20769;-57
2022/04/26 14:43:07;;;;;;;10.80;3.40;;;;;;;26.18;34.15;98988.13;5090330;28;20195;-57
2022/04/26 14:45:44;;;;;;;8.53;3.57;;;;;;;26.12;34.64;98996.31;5089995;28;20742;-57
2022/04/26 14:48:12;;;;;;;8.88;3.40;;;;;;;25.90;35.21;98998.44;5090022;28;20194;-57
2022/04/26 14:50:39;;;;;;;6.40;3.87;;;;;;;25.82;35.64;99011.19;5089914;28;20275;-57
2022/04/26 14:53:06;;;;;;;13.03;4.27;;;;;;;25.69;36.30;99010.97;5085314;28;20527;-58
2022/04/26 14:55:33;;;;;;;8.30;4.07;;;;;;;25.54;36.94;99013.56;5089647;28;20206;-58
2022/04/26 14:58:00;;;;;;;13.27;5.40;;;;;;;25.37;37.32;99018.78;5089587;28;20199;-58
2022/04/26 15:00:27;;;;;;;8.60;4.37;;;;;;;25.26;36.81;99016.72;5089771;28;20202;-58
2022/04/26 15:02:55;;;;;;;8.87;3.93;;;;;;;25.18;38.09;99029.41;5089747;28;20194;-58
2022/04/26 15:05:23;;;;;;;11.53;4.27;;;;;;;25.01;38.72;99030.25;5076185;28;20199;-58
2022/04/26 15:10:34;;;;;;;10.00;4.90;;;;;;;24.78;41.47;99037.53;5069835;28;20194;-58
2022/04/26 15:18:31;;;;;;;6.67;4.27;;;;;;;24.16;44.21;99077.25;5074555;28;20198;-57
2022/04/26 15:20:59;;;;;;;7.77;4.00;;;;;;;24.04;46.77;99074.22;5084336;28;20214;-58
2022/04/26 15:23:26;;;;;;;8.10;4.57;;;;;;;23.88;48.74;99086.31;5076264;28;20271;-57
2022/04/26 15:25:55;;;;;;;9.67;5.83;;;;;;;23.80;51.50;99098.06;5079558;28;20214;-60
2022/04/26 15:28:23;;;;;;;7.47;4.30;;;;;;;23.48;50.49;99086.34;5090762;28;20565;-60
2022/04/26 15:30:51;;;;;;;9.47;4.20;;;;;;;23.40;51.64;99114.66;5093207;28;20654;-61
2022/04/26 15:33:19;;;;;;;14.25;5.00;;;;;;;23.16;55.17;99128.72;5091838;28;20446;-60
2022/04/26 15:35:48;;;;;;;7.77;4.23;;;;;;;22.80;56.67;99134.53;5093192;28;20194;-60
2022/04/26 15:38:15;;;;;;;13.23;7.50;;;;;;;22.49;61.53;99146.22;5093234;28;20668;-60
2022/04/26 15:40:46;;;;;;;12.27;5.93;;;;;;;22.09;64.48;99145.03;5093217;28;20190;-60
2022/04/26 15:43:13;;;;;;;8.33;5.90;;;;;;;21.73;66.71;99146.28;5093121;28;20278;-60
2022/04/26 15:45:40;;;;;;;8.57;6.33;;;;;;;21.53;67.83;99144.38;5092756;28;20183;-60
2022/04/26 15:48:10;;;;;;;7.80;6.03;;;;;;;21.28;69.25;99145.22;5087765;28;20251;-61